createdAt,value
2018-10-18T00:00:53.532Z,6.80
2018-10-18T00:03:22.438Z,6.80
2018-10-18T00:05:51.395Z,6.80
2018-10-18T00:08:20.353Z,6.80
2018-10-18T00:10:49.316Z,6.80
2018-10-18T00:13:18.577Z,6.80
2018-10-18T00:15:47.985Z,6.80
2018-10-18T00:18:17.049Z,6.80
2018-10-18T00:20:45.912Z,6.80
2018-10-18T00:23:14.756Z,6.70
2018-10-18T00:25:43.652Z,6.70
2018-10-18T00:28:12.536Z,6.70
2018-10-18T00:30:41.431Z,6.70
2018-10-18T00:33:10.348Z,6.70
2018-10-18T00:35:39.229Z,6.70
2018-10-18T00:38:08.243Z,6.80
2018-10-18T00:40:37.119Z,6.80
2018-10-18T00:43:06.068Z,6.80
2018-10-18T00:45:34.963Z,6.80
2018-10-18T00:48:04.111Z,6.70
2018-10-18T00:50:33.002Z,6.80
2018-10-18T00:53:01.899Z,6.70
2018-10-18T00:55:30.790Z,6.70
2018-10-18T00:57:59.713Z,6.70
2018-10-18T01:00:28.596Z,6.60
2018-10-18T01:02:57.505Z,6.60
2018-10-18T01:05:26.492Z,6.50
2018-10-18T01:07:55.483Z,6.40
2018-10-18T01:10:24.352Z,6.40
2018-10-18T01:12:53.273Z,6.40
2018-10-18T01:15:22.152Z,6.40
2018-10-18T01:17:51.031Z,6.40
2018-10-18T01:20:19.994Z,6.40
2018-10-18T01:22:48.857Z,6.50
2018-10-18T01:25:17.764Z,6.50
2018-10-18T01:27:46.689Z,6.50
2018-10-18T01:30:15.679Z,6.50
2018-10-18T01:32:44.507Z,6.50
2018-10-18T01:35:13.447Z,6.50
2018-10-18T01:37:42.319Z,6.50
2018-10-18T01:40:11.174Z,6.50
2018-10-18T01:42:40.118Z,6.60
2018-10-18T01:45:09.004Z,6.60
2018-10-18T01:47:37.920Z,6.70
2018-10-18T01:50:07.976Z,6.80
2018-10-18T01:52:36.860Z,6.80
2018-10-18T01:55:06.634Z,6.90
2018-10-18T01:57:35.557Z,6.90
2018-10-18T02:00:04.562Z,6.90
2018-10-18T02:02:33.479Z,6.90
2018-10-18T02:05:02.436Z,6.90
2018-10-18T02:07:31.341Z,7.00
2018-10-18T02:10:00.215Z,6.90
2018-10-18T02:12:29.107Z,6.90
2018-10-18T02:14:57.997Z,6.90
2018-10-18T02:17:27.003Z,6.90
2018-10-18T02:19:55.960Z,6.90
2018-10-18T02:22:24.862Z,6.80
2018-10-18T02:24:53.752Z,6.80
2018-10-18T02:27:22.660Z,6.80
2018-10-18T02:29:51.593Z,6.80
2018-10-18T02:32:20.571Z,6.80
2018-10-18T02:34:49.476Z,6.80
2018-10-18T02:37:18.381Z,6.80
2018-10-18T02:39:47.301Z,6.80
2018-10-18T02:42:16.209Z,6.80
2018-10-18T02:44:45.093Z,6.80
2018-10-18T02:47:13.971Z,6.70
2018-10-18T02:49:42.905Z,6.70
2018-10-18T02:52:12.485Z,6.70
2018-10-18T02:54:41.806Z,6.70
2018-10-18T02:57:10.713Z,6.70
2018-10-18T02:59:39.662Z,6.60
2018-10-18T03:02:08.999Z,6.60
2018-10-18T03:04:37.931Z,6.70
2018-10-18T03:07:07.205Z,6.60
2018-10-18T03:09:36.163Z,6.60
2018-10-18T03:12:05.644Z,6.60
2018-10-18T03:14:34.536Z,6.50
2018-10-18T03:17:03.437Z,6.60
2018-10-18T03:19:32.419Z,6.50
2018-10-18T03:22:01.285Z,6.50
2018-10-18T03:24:30.177Z,6.40
2018-10-18T03:26:59.093Z,6.30
2018-10-18T03:29:28.108Z,6.20
2018-10-18T03:31:57.023Z,6.20
2018-10-18T03:34:25.929Z,6.20
2018-10-18T03:36:54.811Z,6.10
2018-10-18T03:39:23.718Z,6.10
2018-10-18T03:41:52.648Z,6.00
2018-10-18T03:44:21.537Z,6.00
2018-10-18T03:46:50.541Z,6.00
2018-10-18T03:49:19.436Z,5.90
2018-10-18T03:51:48.350Z,5.90
2018-10-18T03:54:18.145Z,5.90
2018-10-18T03:56:47.370Z,5.90
2018-10-18T03:59:16.288Z,5.80
2018-10-18T04:01:45.173Z,5.80
2018-10-18T04:04:14.031Z,5.80
2018-10-18T04:06:42.932Z,5.80
2018-10-18T04:09:11.831Z,5.70
2018-10-18T04:11:41.343Z,5.80
2018-10-18T04:14:10.290Z,5.70
2018-10-18T04:16:39.153Z,5.70
2018-10-18T04:19:08.106Z,5.80
2018-10-18T04:21:37.060Z,5.80
2018-10-18T04:24:06.171Z,5.80
2018-10-18T04:26:35.110Z,5.70
2018-10-18T04:29:04.021Z,5.80
2018-10-18T04:31:32.970Z,5.80
2018-10-18T04:34:01.914Z,5.70
2018-10-18T04:36:30.816Z,5.70
2018-10-18T04:38:59.735Z,5.70
2018-10-18T04:41:28.721Z,5.70
2018-10-18T04:43:57.616Z,5.70
2018-10-18T04:46:26.604Z,5.70
2018-10-18T04:48:55.563Z,5.70
2018-10-18T04:51:24.438Z,5.60
2018-10-18T04:53:53.360Z,5.60
2018-10-18T04:56:22.248Z,5.60
2018-10-18T04:58:51.239Z,5.50
2018-10-18T05:01:20.228Z,5.60
2018-10-18T05:03:49.104Z,5.50
2018-10-18T05:06:18.132Z,5.50
2018-10-18T05:08:47.334Z,5.60
2018-10-18T05:11:16.275Z,5.60
2018-10-18T05:13:45.187Z,5.60
2018-10-18T05:16:14.104Z,5.60
2018-10-18T05:18:43.276Z,5.60
2018-10-18T05:21:12.213Z,5.60
2018-10-18T05:23:41.183Z,5.60
2018-10-18T05:26:11.005Z,5.60
2018-10-18T05:28:40.002Z,5.60
2018-10-18T05:31:08.941Z,5.60
2018-10-18T05:33:37.954Z,5.70
2018-10-18T05:36:06.968Z,5.70
2018-10-18T05:38:36.267Z,5.70
2018-10-18T05:41:05.461Z,5.80
2018-10-18T05:43:34.441Z,5.80
2018-10-18T05:46:03.384Z,5.90
2018-10-18T05:48:32.273Z,5.90
2018-10-18T05:51:01.279Z,5.90
2018-10-18T05:53:30.227Z,6.00
2018-10-18T05:55:59.152Z,6.00
2018-10-18T05:58:28.140Z,6.10
2018-10-18T06:00:57.115Z,6.10
2018-10-18T06:03:26.043Z,6.20
2018-10-18T06:05:54.991Z,6.20
2018-10-18T06:08:24.046Z,6.30
2018-10-18T06:11:03.988Z,6.40
2018-10-18T06:13:32.938Z,6.50
2018-10-18T06:16:01.829Z,6.50
2018-10-18T06:18:30.739Z,6.60
2018-10-18T06:20:59.697Z,6.70
2018-10-18T06:23:28.742Z,6.80
2018-10-18T06:25:57.508Z,6.80
2018-10-18T06:28:26.485Z,6.90
2018-10-18T06:30:55.415Z,7.00
2018-10-18T06:33:24.307Z,7.20
2018-10-18T06:35:53.285Z,7.20
2018-10-18T06:38:22.184Z,7.40
2018-10-18T06:40:51.078Z,7.50
2018-10-18T06:43:19.982Z,7.60
2018-10-18T06:45:48.903Z,7.70
2018-10-18T06:48:17.887Z,7.80
2018-10-18T06:50:46.786Z,7.90
2018-10-18T06:53:15.678Z,8.10
2018-10-18T06:55:45.225Z,8.20
2018-10-18T06:58:14.109Z,8.40
2018-10-18T07:00:43.050Z,8.50
2018-10-18T07:03:12.013Z,8.70
2018-10-18T07:05:41.078Z,8.80
2018-10-18T07:08:10.027Z,9.00
2018-10-18T07:10:39.040Z,9.20
2018-10-18T07:13:07.968Z,9.30
2018-10-18T07:15:36.931Z,9.50
2018-10-18T07:18:06.122Z,9.60
2018-10-18T07:20:36.108Z,9.70
2018-10-18T07:23:05.468Z,9.90
2018-10-18T07:25:34.376Z,10.00
2018-10-18T07:28:03.298Z,10.10
2018-10-18T07:30:32.237Z,10.20
2018-10-18T07:33:01.195Z,10.30
2018-10-18T07:35:30.084Z,10.40
2018-10-18T07:37:59.033Z,10.50
2018-10-18T07:40:27.906Z,10.60
2018-10-18T07:42:56.889Z,10.70
2018-10-18T07:45:25.833Z,10.70
2018-10-18T07:47:54.845Z,10.90
2018-10-18T07:50:23.785Z,10.90
2018-10-18T07:52:52.699Z,11.00
2018-10-18T07:55:21.651Z,11.10
2018-10-18T07:57:50.594Z,11.20
2018-10-18T08:00:20.254Z,11.40
2018-10-18T08:02:49.175Z,11.50
2018-10-18T08:05:18.124Z,11.60
2018-10-18T08:07:47.103Z,11.70
2018-10-18T08:10:18.311Z,11.80
2018-10-18T08:12:47.263Z,12.00
2018-10-18T08:15:17.310Z,12.10
2018-10-18T08:17:46.806Z,12.20
2018-10-18T08:20:16.107Z,12.30
2018-10-18T08:22:45.191Z,12.50
2018-10-18T08:25:14.095Z,12.60
2018-10-18T08:27:43.039Z,12.70
2018-10-18T08:30:13.307Z,12.80
2018-10-18T08:32:42.341Z,12.90
2018-10-18T08:35:12.328Z,13.00
2018-10-18T08:37:41.330Z,13.10
2018-10-18T08:40:10.432Z,13.20
2018-10-18T08:42:39.357Z,13.40
2018-10-18T08:45:09.515Z,13.50
2018-10-18T08:47:38.516Z,13.60
2018-10-18T08:50:09.076Z,13.70
2018-10-18T08:52:38.172Z,13.90
2018-10-18T08:55:08.752Z,14.00
2018-10-18T08:57:37.617Z,14.00
2018-10-18T09:00:07.437Z,14.20
2018-10-18T09:02:36.340Z,14.20
2018-10-18T09:05:05.826Z,14.30
2018-10-18T09:07:34.927Z,14.40
2018-10-18T09:10:04.252Z,14.50
2018-10-18T09:12:33.150Z,14.60
2018-10-18T09:15:02.286Z,14.60
2018-10-18T09:17:31.199Z,14.80
2018-10-18T09:20:00.696Z,14.80
2018-10-18T09:22:29.594Z,14.90
2018-10-18T09:24:58.534Z,15.00
2018-10-18T09:27:27.539Z,15.10
2018-10-18T09:29:56.518Z,15.20
2018-10-18T09:32:25.476Z,15.30
2018-10-18T09:34:54.383Z,15.40
2018-10-18T09:37:24.204Z,15.50
2018-10-18T09:39:53.422Z,15.60
2018-10-18T09:42:22.304Z,15.60
2018-10-18T09:44:51.458Z,15.70
2018-10-18T09:47:20.415Z,15.80
2018-10-18T09:49:49.308Z,15.90
2018-10-18T09:52:18.264Z,16.00
2018-10-18T09:54:47.295Z,16.10
2018-10-18T09:57:16.208Z,16.20
2018-10-18T09:59:45.077Z,16.20
2018-10-18T10:02:19.010Z,16.30
2018-10-18T10:04:47.937Z,16.40
2018-10-18T10:07:16.886Z,16.50
2018-10-18T10:09:45.752Z,16.50
2018-10-18T10:12:14.669Z,16.60
2018-10-18T10:14:43.744Z,16.70
2018-10-18T10:17:12.723Z,16.70
2018-10-18T10:19:41.648Z,16.80
2018-10-18T10:22:10.549Z,16.90
2018-10-18T10:24:39.508Z,17.00
2018-10-18T10:27:08.472Z,17.10
2018-10-18T10:29:37.426Z,17.20
2018-10-18T10:32:06.443Z,17.20
2018-10-18T10:34:35.363Z,17.40
2018-10-18T10:37:04.395Z,17.50
2018-10-18T10:39:33.382Z,17.50
2018-10-18T10:42:02.375Z,17.60
2018-10-18T10:44:31.299Z,17.80
2018-10-18T10:47:00.288Z,17.80
2018-10-18T10:49:29.168Z,17.90
2018-10-18T10:51:58.127Z,18.00
2018-10-18T10:54:27.055Z,18.10
2018-10-18T10:56:56.023Z,18.20
2018-10-18T10:59:24.911Z,18.30
2018-10-18T11:01:53.868Z,18.40
2018-10-18T11:04:22.956Z,18.40
2018-10-18T11:06:51.883Z,18.50
2018-10-18T11:09:21.042Z,18.50
2018-10-18T11:11:49.844Z,18.50
2018-10-18T11:14:18.871Z,18.50
2018-10-18T11:16:47.732Z,18.50
2018-10-18T11:19:16.615Z,18.50
2018-10-18T11:21:45.684Z,18.50
2018-10-18T11:24:14.555Z,18.40
2018-10-18T11:26:43.388Z,18.40
2018-10-18T11:29:12.289Z,18.50
2018-10-18T11:31:41.182Z,18.60
2018-10-18T11:34:10.991Z,18.70
2018-10-18T11:36:40.006Z,18.80
2018-10-18T11:39:10.103Z,18.80
2018-10-18T11:41:39.102Z,18.90
2018-10-18T11:44:08.247Z,19.00
2018-10-18T11:46:37.287Z,19.10
2018-10-18T11:49:06.390Z,19.20
2018-10-18T11:51:35.551Z,19.20
2018-10-18T11:54:04.621Z,19.20
2018-10-18T11:56:33.565Z,19.20
2018-10-18T11:59:02.514Z,19.30
2018-10-18T12:01:31.820Z,19.40
2018-10-18T12:04:00.877Z,19.40
2018-10-18T12:06:30.016Z,19.40
2018-10-18T12:08:59.349Z,19.40
2018-10-18T12:11:28.271Z,19.50
2018-10-18T12:13:57.225Z,19.50
2018-10-18T12:16:26.328Z,19.50
2018-10-18T12:18:55.406Z,19.60
2018-10-18T12:21:24.320Z,19.60
2018-10-18T12:23:54.204Z,19.60
2018-10-18T12:26:23.101Z,19.60
2018-10-18T12:28:52.049Z,19.60
2018-10-18T12:31:20.987Z,19.60
2018-10-18T12:33:49.888Z,19.50
2018-10-18T12:36:18.882Z,19.50
2018-10-18T12:38:47.774Z,19.60
2018-10-18T12:41:16.781Z,19.50
2018-10-18T12:43:45.635Z,19.50
2018-10-18T12:46:14.559Z,19.40
2018-10-18T12:48:43.556Z,19.40
2018-10-18T12:51:12.497Z,19.50
2018-10-18T12:53:41.388Z,19.40
2018-10-18T12:56:10.424Z,19.50
2018-10-18T12:58:39.267Z,19.50
2018-10-18T13:01:08.162Z,19.60
2018-10-18T13:03:37.088Z,19.50
2018-10-18T13:06:06.056Z,19.40
2018-10-18T13:08:34.937Z,19.40
2018-10-18T13:11:03.851Z,19.40
2018-10-18T13:13:33.692Z,19.50
2018-10-18T13:16:02.617Z,19.40
2018-10-18T13:18:36.509Z,19.40
2018-10-18T13:21:05.633Z,19.30
2018-10-18T13:23:34.524Z,19.40
2018-10-18T13:26:03.428Z,19.40
2018-10-18T13:28:32.310Z,19.50
2018-10-18T13:31:01.255Z,19.60
2018-10-18T13:33:30.254Z,19.60
2018-10-18T13:35:59.786Z,19.60
2018-10-18T13:38:28.743Z,19.60
2018-10-18T13:40:57.697Z,19.60
2018-10-18T13:43:26.700Z,19.60
2018-10-18T13:45:55.641Z,19.60
2018-10-18T13:48:24.616Z,19.60
2018-10-18T13:50:53.521Z,19.50
2018-10-18T13:53:22.391Z,19.50
2018-10-18T13:55:51.388Z,19.50
2018-10-18T13:58:20.317Z,19.30
2018-10-18T14:00:49.306Z,19.10
2018-10-18T14:03:18.217Z,19.00
2018-10-18T14:05:47.248Z,18.90
2018-10-18T14:08:17.054Z,18.90
2018-10-18T14:10:45.987Z,18.80
2018-10-18T14:13:15.160Z,18.80
2018-10-18T14:15:44.153Z,18.70
2018-10-18T14:18:13.073Z,18.60
2018-10-18T14:20:42.077Z,18.50
2018-10-18T14:23:12.013Z,18.50
2018-10-18T14:25:40.927Z,18.40
2018-10-18T14:28:09.981Z,18.30
2018-10-18T14:30:38.946Z,18.20
2018-10-18T14:33:07.877Z,18.10
2018-10-18T14:35:36.773Z,18.10
2018-10-18T14:38:05.832Z,18.00
2018-10-18T14:40:34.794Z,17.80
2018-10-18T14:43:03.791Z,17.70
2018-10-18T14:45:32.735Z,17.60
2018-10-18T14:48:01.642Z,17.50
2018-10-18T14:50:30.710Z,17.40
2018-10-18T14:52:59.609Z,17.40
2018-10-18T14:55:28.504Z,17.20
2018-10-18T14:57:57.404Z,17.10
2018-10-18T15:00:26.537Z,16.90
2018-10-18T15:02:55.486Z,16.80
2018-10-18T15:05:25.400Z,16.60
2018-10-18T15:07:54.396Z,16.40
2018-10-18T15:10:23.435Z,16.30
2018-10-18T15:12:52.495Z,16.10
2018-10-18T15:15:21.488Z,16.00
2018-10-18T15:17:50.378Z,15.80
2018-10-18T15:20:19.322Z,15.60
2018-10-18T15:22:48.244Z,15.50
2018-10-18T15:25:17.219Z,15.40
2018-10-18T15:27:46.371Z,15.20
2018-10-18T15:30:15.159Z,15.10
2018-10-18T15:32:44.653Z,14.90
2018-10-18T15:35:13.715Z,14.80
2018-10-18T15:37:42.775Z,14.70
2018-10-18T15:40:11.830Z,14.50
2018-10-18T15:42:40.788Z,14.40
2018-10-18T15:45:10.635Z,14.30
2018-10-18T15:47:39.759Z,14.10
2018-10-18T15:50:09.976Z,14.00
2018-10-18T15:52:38.927Z,13.80
2018-10-18T15:55:09.221Z,13.70
2018-10-18T15:57:38.243Z,13.50
2018-10-18T16:00:10.102Z,13.40
2018-10-18T16:02:39.119Z,13.30
2018-10-18T16:05:08.916Z,13.20
2018-10-18T16:07:38.234Z,13.10
2018-10-18T16:10:07.976Z,12.90
2018-10-18T16:12:37.076Z,12.80
2018-10-18T16:15:06.893Z,12.70
2018-10-18T16:17:36.284Z,12.60
2018-10-18T16:20:06.506Z,12.50
2018-10-18T16:22:35.465Z,12.40
2018-10-18T16:25:04.503Z,12.40
2018-10-18T16:27:33.475Z,12.20
2018-10-18T16:30:02.485Z,12.20
2018-10-18T16:32:31.530Z,12.00
2018-10-18T16:35:01.391Z,12.00
2018-10-18T16:37:30.368Z,11.90
2018-10-18T16:39:59.321Z,11.80
2018-10-18T16:42:28.365Z,11.70
2018-10-18T16:44:57.377Z,11.70
2018-10-18T16:47:26.855Z,11.60
2018-10-18T16:49:55.803Z,11.50
2018-10-18T16:52:24.705Z,11.40
2018-10-18T16:54:53.697Z,11.40
2018-10-18T16:57:22.728Z,11.30
2018-10-18T16:59:51.627Z,11.20
2018-10-18T17:02:20.675Z,11.10
2018-10-18T17:04:49.666Z,11.10
2018-10-18T17:07:18.720Z,11.10
2018-10-18T17:09:47.750Z,11.00
2018-10-18T17:12:16.734Z,11.00
2018-10-18T17:14:45.791Z,10.90
2018-10-18T17:17:14.733Z,10.90
2018-10-18T17:19:43.608Z,10.80
2018-10-18T17:22:12.672Z,10.80
2018-10-18T17:24:41.731Z,10.80
2018-10-18T17:27:10.719Z,10.70
2018-10-18T17:29:39.744Z,10.60
2018-10-18T17:32:08.817Z,10.60
2018-10-18T17:34:37.629Z,10.50
2018-10-18T17:37:06.750Z,10.50
2018-10-18T17:39:35.690Z,10.40
2018-10-18T17:42:04.874Z,10.40
2018-10-18T17:44:33.865Z,10.30
2018-10-18T17:47:02.782Z,10.30
2018-10-18T17:49:31.706Z,10.20
2018-10-18T17:52:00.629Z,10.20
2018-10-18T17:54:30.231Z,10.20
2018-10-18T17:56:59.189Z,10.10
2018-10-18T17:59:28.204Z,10.10
2018-10-18T18:01:57.108Z,10.10
2018-10-18T18:04:26.059Z,10.10
2018-10-18T18:06:55.117Z,10.10
2018-10-18T18:09:24.148Z,10.20
2018-10-18T18:11:53.242Z,10.20
2018-10-18T18:14:22.135Z,10.20
2018-10-18T18:16:51.015Z,10.20
2018-10-18T18:19:19.921Z,10.20
2018-10-18T18:21:48.787Z,10.30
2018-10-18T18:24:17.761Z,10.30
2018-10-18T18:26:46.732Z,10.30
2018-10-18T18:29:15.674Z,10.30
2018-10-18T18:31:44.701Z,10.30
2018-10-18T18:34:13.673Z,10.20
2018-10-18T18:36:42.970Z,10.20
2018-10-18T18:39:12.277Z,10.20
2018-10-18T18:41:42.275Z,10.20
2018-10-18T18:44:11.163Z,10.10
2018-10-18T18:46:40.182Z,10.10
2018-10-18T18:49:09.100Z,10.00
2018-10-18T18:51:38.055Z,10.00
2018-10-18T18:54:06.966Z,10.00
2018-10-18T18:56:35.922Z,10.00
2018-10-18T18:59:05.213Z,10.10
2018-10-18T19:01:34.368Z,10.10
2018-10-18T19:04:03.984Z,10.10
2018-10-18T19:06:32.996Z,10.10
2018-10-18T19:09:02.155Z,10.20
2018-10-18T19:11:31.458Z,10.20
2018-10-18T19:14:00.449Z,10.20
2018-10-18T19:16:29.330Z,10.20
2018-10-18T19:18:58.272Z,10.20
2018-10-18T19:21:27.253Z,10.20
2018-10-18T19:23:56.149Z,10.20
2018-10-18T19:26:25.103Z,10.20
2018-10-18T19:28:54.069Z,10.20
2018-10-18T19:31:22.967Z,10.20
2018-10-18T19:33:52.597Z,10.10
2018-10-18T19:36:21.524Z,10.10
2018-10-18T19:38:50.423Z,10.00
2018-10-18T19:41:19.359Z,10.00
2018-10-18T19:43:48.339Z,9.90
2018-10-18T19:46:17.418Z,9.90
2018-10-18T19:48:47.199Z,9.80
2018-10-18T19:51:16.559Z,9.80
2018-10-18T19:53:46.581Z,9.70
2018-10-18T19:56:15.503Z,9.60
2018-10-18T20:01:26.443Z,9.50
2018-10-18T20:03:55.490Z,9.40
2018-10-18T20:06:24.440Z,9.40
2018-10-18T20:08:56.028Z,9.30
2018-10-18T20:11:24.908Z,9.30
2018-10-18T20:13:53.817Z,9.20
2018-10-18T20:16:24.569Z,9.10
2018-10-18T20:18:53.454Z,9.00
2018-10-18T20:21:22.675Z,9.00
2018-10-18T20:23:51.586Z,9.00
2018-10-18T20:26:21.463Z,8.90
2018-10-18T20:28:50.337Z,8.90
2018-10-18T20:31:19.334Z,8.90
2018-10-18T20:33:48.813Z,8.80
2018-10-18T20:36:17.754Z,8.80
2018-10-18T20:38:46.630Z,8.80
2018-10-18T20:41:15.559Z,8.80
2018-10-18T20:43:44.678Z,8.80
2018-10-18T20:46:14.299Z,8.80
2018-10-18T20:48:43.192Z,8.80
2018-10-18T20:51:12.190Z,8.80
2018-10-18T20:53:41.192Z,8.70
2018-10-18T20:56:10.083Z,8.70
2018-10-18T20:58:39.025Z,8.70
2018-10-18T21:01:08.005Z,8.60
2018-10-18T21:03:36.926Z,8.60
2018-10-18T21:06:05.983Z,8.50
2018-10-18T21:08:37.636Z,8.50
2018-10-18T21:11:06.634Z,8.40
2018-10-18T21:13:35.470Z,8.40
2018-10-18T21:16:04.486Z,8.30
2018-10-18T21:18:33.388Z,8.30
2018-10-18T21:21:02.293Z,8.30
2018-10-18T21:23:31.259Z,8.20
2018-10-18T21:26:00.240Z,8.20
2018-10-18T21:28:29.740Z,8.20
2018-10-18T21:30:58.663Z,8.20
2018-10-18T21:33:27.555Z,8.20
2018-10-18T21:35:56.456Z,8.20
2018-10-18T21:38:25.356Z,8.20
2018-10-18T21:40:54.262Z,8.20
2018-10-18T21:43:23.098Z,8.10
2018-10-18T21:45:56.463Z,8.10
2018-10-18T21:48:26.587Z,8.10
2018-10-18T21:50:55.441Z,8.00
2018-10-18T21:53:24.385Z,8.00
2018-10-18T21:55:53.236Z,8.00
2018-10-18T21:58:22.217Z,8.00
2018-10-18T22:00:51.137Z,8.00
2018-10-18T22:03:20.076Z,7.90
2018-10-18T22:05:49.214Z,7.90
2018-10-18T22:08:18.425Z,7.90
2018-10-18T22:10:47.580Z,7.90
2018-10-18T22:13:16.727Z,7.90
2018-10-18T22:15:45.932Z,7.90
2018-10-18T22:18:15.063Z,7.90
2018-10-18T22:20:44.313Z,7.80
2018-10-18T22:23:13.539Z,7.80
2018-10-18T22:25:42.699Z,7.80
2018-10-18T22:28:11.884Z,7.80
2018-10-18T22:30:41.108Z,7.70
2018-10-18T22:33:10.269Z,7.70
2018-10-18T22:35:39.423Z,7.60
2018-10-18T22:38:08.626Z,7.60
2018-10-18T22:40:37.813Z,7.60
2018-10-18T22:43:07.191Z,7.60
2018-10-18T22:45:36.407Z,7.50
2018-10-18T22:48:05.741Z,7.50
2018-10-18T22:50:34.921Z,7.50
2018-10-18T22:53:04.096Z,7.50
2018-10-18T22:55:33.300Z,7.50
2018-10-18T22:58:03.135Z,7.40
2018-10-18T23:00:32.325Z,7.50
2018-10-18T23:03:01.615Z,7.50
2018-10-18T23:05:30.759Z,7.40
2018-10-18T23:07:59.892Z,7.40
2018-10-18T23:10:30.117Z,7.40
2018-10-18T23:12:59.376Z,7.40
2018-10-18T23:15:28.527Z,7.30
2018-10-18T23:17:57.661Z,7.30
2018-10-18T23:20:26.840Z,7.20
2018-10-18T23:22:56.049Z,7.20
2018-10-18T23:25:25.171Z,7.20
2018-10-18T23:27:54.303Z,7.20
2018-10-18T23:30:23.385Z,7.10
2018-10-18T23:32:52.472Z,7.10
2018-10-18T23:35:21.347Z,7.10
2018-10-18T23:37:50.261Z,7.10
2018-10-18T23:40:19.161Z,7.10
2018-10-18T23:42:48.051Z,7.10
2018-10-18T23:45:17.088Z,7.00
2018-10-18T23:47:45.883Z,7.00
2018-10-18T23:50:14.825Z,7.00
2018-10-18T23:52:43.735Z,7.00
2018-10-18T23:55:12.640Z,7.00
2018-10-18T23:57:41.582Z,7.00
